createdAt,value
2019-03-19T00:00:10.261Z,101250
2019-03-19T00:02:39.102Z,101248
2019-03-19T00:05:07.963Z,101248
2019-03-19T00:07:37.535Z,101253
2019-03-19T00:10:07.148Z,101249
2019-03-19T00:12:35.979Z,101240
2019-03-19T00:15:05.553Z,101247
2019-03-19T00:17:34.388Z,101257
2019-03-19T00:20:03.219Z,101253
2019-03-19T00:22:32.055Z,101251
2019-03-19T00:25:01.643Z,101255
2019-03-19T00:27:30.475Z,101263
2019-03-19T00:29:59.354Z,101263
2019-03-19T00:32:28.199Z,101253
2019-03-19T00:34:57.052Z,101259
2019-03-19T00:37:25.886Z,101256
2019-03-19T00:39:54.736Z,101261
2019-03-19T00:42:23.593Z,101253
2019-03-19T00:44:52.431Z,101263
2019-03-19T00:47:21.256Z,101262
2019-03-19T00:49:50.103Z,101270
2019-03-19T00:52:18.928Z,101259
2019-03-19T00:54:47.766Z,101265
2019-03-19T00:57:16.603Z,101259
2019-03-19T00:59:46.183Z,101259
2019-03-19T01:02:15.024Z,101257
2019-03-19T01:04:43.875Z,101255
2019-03-19T01:07:12.733Z,101257
2019-03-19T01:09:41.569Z,101267
2019-03-19T01:12:11.161Z,101264
2019-03-19T01:14:40.003Z,101266
2019-03-19T01:17:08.829Z,101267
2019-03-19T01:19:37.666Z,101275
2019-03-19T01:22:06.586Z,101269
2019-03-19T01:24:36.108Z,101268
2019-03-19T01:27:04.936Z,101275
2019-03-19T01:29:33.768Z,101280
2019-03-19T01:32:02.592Z,101270
2019-03-19T01:34:31.438Z,101278
2019-03-19T01:37:00.305Z,101268
2019-03-19T01:39:29.146Z,101260
2019-03-19T01:41:57.976Z,101268
2019-03-19T01:44:26.814Z,101262
2019-03-19T01:46:55.668Z,101258
2019-03-19T01:49:24.506Z,101266
2019-03-19T01:51:53.347Z,101264
2019-03-19T01:54:22.192Z,101265
2019-03-19T01:56:51.008Z,101261
2019-03-19T01:59:19.851Z,101269
2019-03-19T02:01:48.696Z,101269
2019-03-19T02:04:17.532Z,101270
2019-03-19T02:06:46.366Z,101265
2019-03-19T02:09:15.204Z,101272
2019-03-19T02:11:44.058Z,101258
2019-03-19T02:14:12.895Z,101266
2019-03-19T02:16:41.769Z,101262
2019-03-19T02:19:10.580Z,101261
2019-03-19T02:21:39.418Z,101269
2019-03-19T02:24:08.250Z,101267
2019-03-19T02:26:37.107Z,101259
2019-03-19T02:29:05.933Z,101268
2019-03-19T02:31:34.804Z,101257
2019-03-19T02:34:03.646Z,101265
2019-03-19T02:36:32.481Z,101265
2019-03-19T02:39:01.330Z,101263
2019-03-19T02:41:30.190Z,101270
2019-03-19T02:43:59.611Z,101266
2019-03-19T02:46:28.459Z,101262
2019-03-19T02:48:57.298Z,101270
2019-03-19T02:51:26.185Z,101273
2019-03-19T02:53:54.981Z,101279
2019-03-19T02:56:32.392Z,101291
2019-03-19T02:58:52.666Z,101290
2019-03-19T03:01:21.507Z,101287
2019-03-19T03:03:50.361Z,101286
2019-03-19T03:06:19.188Z,101292
2019-03-19T03:08:48.020Z,101305
2019-03-19T03:11:16.899Z,101304
2019-03-19T03:13:46.448Z,101305
2019-03-19T03:16:15.289Z,101313
2019-03-19T03:18:44.860Z,101313
2019-03-19T03:21:13.701Z,101305
2019-03-19T03:23:42.534Z,101307
2019-03-19T03:26:11.379Z,101314
2019-03-19T03:28:40.220Z,101312
2019-03-19T03:31:09.080Z,101321
2019-03-19T03:33:37.934Z,101329
2019-03-19T03:36:07.497Z,101333
2019-03-19T03:38:36.925Z,101335
2019-03-19T03:41:06.520Z,101339
2019-03-19T03:43:35.378Z,101344
2019-03-19T03:46:04.221Z,101339
2019-03-19T03:48:33.795Z,101339
2019-03-19T03:51:03.229Z,101343
2019-03-19T03:53:32.083Z,101349
2019-03-19T03:56:00.969Z,101357
2019-03-19T03:58:29.744Z,101348
2019-03-19T04:00:58.588Z,101355
2019-03-19T04:03:27.424Z,101360
2019-03-19T04:05:56.270Z,101371
2019-03-19T04:08:25.837Z,101376
2019-03-19T04:10:54.671Z,101386
2019-03-19T04:13:23.539Z,101380
2019-03-19T04:15:52.360Z,101377
2019-03-19T04:18:21.208Z,101380
2019-03-19T04:20:50.790Z,101388
2019-03-19T04:23:19.621Z,101393
2019-03-19T04:25:48.468Z,101384
2019-03-19T04:28:17.290Z,101394
2019-03-19T04:30:46.208Z,101394
2019-03-19T04:33:14.967Z,101403
2019-03-19T04:35:44.545Z,101407
2019-03-19T04:38:13.373Z,101413
2019-03-19T04:40:42.217Z,101415
2019-03-19T04:43:11.040Z,101418
2019-03-19T04:45:39.888Z,101418
2019-03-19T04:48:08.731Z,101414
2019-03-19T04:50:37.580Z,101417
2019-03-19T04:53:06.412Z,101423
2019-03-19T04:55:35.245Z,101438
2019-03-19T04:58:04.068Z,101437
2019-03-19T05:00:33.648Z,101440
2019-03-19T05:03:02.484Z,101446
2019-03-19T05:05:31.325Z,101447
2019-03-19T05:08:00.150Z,101441
2019-03-19T05:10:29.762Z,101442
2019-03-19T05:13:00.685Z,101443
2019-03-19T05:15:27.425Z,101444
2019-03-19T05:17:56.270Z,101440
2019-03-19T05:20:25.116Z,101450
2019-03-19T05:22:53.963Z,101457
2019-03-19T05:25:22.797Z,101448
2019-03-19T05:27:52.420Z,101454
2019-03-19T05:30:21.248Z,101450
2019-03-19T05:32:50.088Z,101449
2019-03-19T05:35:19.680Z,101458
2019-03-19T05:37:48.534Z,101465
2019-03-19T05:40:17.372Z,101468
2019-03-19T05:42:46.228Z,101472
2019-03-19T05:45:15.061Z,101471
2019-03-19T05:47:43.902Z,101476
2019-03-19T05:50:12.752Z,101473
2019-03-19T05:52:41.590Z,101481
2019-03-19T05:55:10.426Z,101480
2019-03-19T05:57:48.732Z,101484
2019-03-19T06:00:08.174Z,101484
2019-03-19T06:02:37.015Z,101486
2019-03-19T06:05:05.886Z,101487
2019-03-19T06:07:34.720Z,101493
2019-03-19T06:10:03.567Z,101493
2019-03-19T06:12:32.402Z,101492
2019-03-19T06:15:01.257Z,101500
2019-03-19T06:17:30.119Z,101502
2019-03-19T06:19:59.700Z,101500
2019-03-19T06:22:28.558Z,101498
2019-03-19T06:24:57.392Z,101511
2019-03-19T06:27:26.241Z,101508
2019-03-19T06:29:55.070Z,101514
2019-03-19T06:32:23.916Z,101522
2019-03-19T06:34:52.754Z,101518
2019-03-19T06:37:21.825Z,101518
2019-03-19T06:39:51.420Z,101514
2019-03-19T06:42:20.254Z,101518
2019-03-19T06:44:49.118Z,101522
2019-03-19T06:47:18.256Z,101514
2019-03-19T06:49:46.820Z,101519
2019-03-19T06:52:15.668Z,101517
2019-03-19T06:54:44.508Z,101510
2019-03-19T06:57:13.366Z,101517
2019-03-19T06:59:42.960Z,101513
2019-03-19T07:02:11.825Z,101511
2019-03-19T07:04:40.671Z,101523
2019-03-19T07:07:10.250Z,101539
2019-03-19T07:09:39.104Z,101544
2019-03-19T07:12:07.967Z,101542
2019-03-19T07:14:36.806Z,101552
2019-03-19T07:17:05.671Z,101553
2019-03-19T07:19:34.516Z,101554
2019-03-19T07:22:04.100Z,101557
2019-03-19T07:24:32.949Z,101553
2019-03-19T07:27:01.802Z,101558
2019-03-19T07:29:31.415Z,101569
2019-03-19T07:32:00.268Z,101563
2019-03-19T07:34:29.118Z,101573
2019-03-19T07:36:57.960Z,101563
2019-03-19T07:39:26.817Z,101568
2019-03-19T07:41:55.665Z,101567
2019-03-19T07:44:24.495Z,101574
2019-03-19T07:46:53.340Z,101571
2019-03-19T07:49:22.195Z,101567
2019-03-19T07:51:53.324Z,101580
2019-03-19T07:54:19.892Z,101575
2019-03-19T07:56:49.476Z,101574
2019-03-19T07:59:18.396Z,101583
2019-03-19T08:01:47.198Z,101572
2019-03-19T08:04:16.104Z,101576
2019-03-19T08:06:44.914Z,101582
2019-03-19T08:09:13.769Z,101587
2019-03-19T08:11:42.640Z,101577
2019-03-19T08:14:11.504Z,101582
2019-03-19T08:16:40.364Z,101583
2019-03-19T08:19:09.208Z,101593
2019-03-19T08:21:38.828Z,101596
2019-03-19T08:24:07.681Z,101598
2019-03-19T08:26:36.528Z,101604
2019-03-19T08:29:05.381Z,101595
2019-03-19T08:31:34.274Z,101601
2019-03-19T08:34:03.904Z,101613
2019-03-19T08:36:32.722Z,101608
2019-03-19T08:39:01.573Z,101606
2019-03-19T08:41:30.438Z,101607
2019-03-19T08:43:59.312Z,101618
2019-03-19T08:46:28.171Z,101607
2019-03-19T08:48:57.027Z,101603
2019-03-19T08:51:25.873Z,101615
2019-03-19T08:53:54.734Z,101630
2019-03-19T08:56:23.602Z,101617
2019-03-19T08:58:52.492Z,101619
2019-03-19T09:01:22.048Z,101621
2019-03-19T09:03:50.900Z,101631
2019-03-19T09:06:19.753Z,101624
2019-03-19T09:08:50.418Z,101631
2019-03-19T09:11:18.936Z,101634
2019-03-19T09:13:47.789Z,101635
2019-03-19T09:16:16.633Z,101632
2019-03-19T09:18:45.482Z,101626
2019-03-19T09:21:14.323Z,101645
2019-03-19T09:23:43.916Z,101641
2019-03-19T09:26:12.795Z,101649
2019-03-19T09:28:41.656Z,101645
2019-03-19T09:31:10.496Z,101643
2019-03-19T09:33:39.345Z,101650
2019-03-19T09:36:08.184Z,101657
2019-03-19T09:38:37.792Z,101654
2019-03-19T09:41:06.644Z,101653
2019-03-19T09:43:35.481Z,101664
2019-03-19T09:46:04.332Z,101656
2019-03-19T09:48:33.246Z,101659
2019-03-19T09:51:02.059Z,101659
2019-03-19T09:53:30.925Z,101658
2019-03-19T09:56:00.513Z,101668
2019-03-19T09:58:29.360Z,101651
2019-03-19T10:00:58.201Z,101661
2019-03-19T10:03:27.792Z,101657
2019-03-19T10:05:56.690Z,101662
2019-03-19T10:08:25.501Z,101663
2019-03-19T10:10:54.370Z,101670
2019-03-19T10:13:23.237Z,101661
2019-03-19T10:15:52.075Z,101656
2019-03-19T10:18:20.932Z,101657
2019-03-19T10:20:49.835Z,101661
2019-03-19T10:23:18.638Z,101654
2019-03-19T10:25:47.494Z,101656
2019-03-19T10:28:16.348Z,101658
2019-03-19T10:30:45.252Z,101659
2019-03-19T10:33:15.869Z,101661
2019-03-19T10:35:42.969Z,101659
2019-03-19T10:38:11.851Z,101661
2019-03-19T10:40:40.659Z,101657
2019-03-19T10:43:09.546Z,101659
2019-03-19T10:45:38.396Z,101662
2019-03-19T10:48:07.294Z,101659
2019-03-19T10:50:36.144Z,101659
2019-03-19T10:53:04.954Z,101659
2019-03-19T10:55:33.806Z,101658
2019-03-19T10:58:10.699Z,101651
2019-03-19T11:00:31.494Z,101653
2019-03-19T11:03:00.363Z,101650
2019-03-19T11:05:29.218Z,101650
2019-03-19T11:07:58.078Z,101650
2019-03-19T11:10:26.929Z,101649
2019-03-19T11:12:55.825Z,101649
2019-03-19T11:15:24.672Z,101662
2019-03-19T11:17:53.490Z,101665
2019-03-19T11:20:22.355Z,101667
2019-03-19T11:22:51.951Z,101670
2019-03-19T11:25:23.412Z,101674
2019-03-19T11:27:52.290Z,101674
2019-03-19T11:30:21.935Z,101671
2019-03-19T11:32:50.780Z,101671
2019-03-19T11:35:20.381Z,101665
2019-03-19T11:37:49.966Z,101665
2019-03-19T11:40:19.447Z,101664
2019-03-19T11:42:48.267Z,101668
2019-03-19T11:45:18.044Z,101668
2019-03-19T11:47:46.884Z,101652
2019-03-19T11:50:24.378Z,101654
2019-03-19T11:52:53.226Z,101654
2019-03-19T11:55:22.132Z,101653
2019-03-19T11:57:50.928Z,101657
2019-03-19T12:03:12.313Z,101657
2019-03-19T12:05:30.633Z,101646
2019-03-19T12:07:59.476Z,101649
2019-03-19T12:10:28.318Z,101651
2019-03-19T12:12:57.171Z,101651
2019-03-19T12:15:26.012Z,101652
2019-03-19T12:17:54.857Z,101652
2019-03-19T12:20:23.716Z,101645
2019-03-19T12:22:52.557Z,101648
2019-03-19T12:25:21.423Z,101650
2019-03-19T12:27:50.275Z,101650
2019-03-19T12:30:24.775Z,101651
2019-03-19T12:32:51.344Z,101649
2019-03-19T12:35:20.185Z,101653
2019-03-19T12:37:49.056Z,101650
2019-03-19T12:40:17.916Z,101642
2019-03-19T12:42:46.762Z,101646
2019-03-19T12:45:18.280Z,101654
2019-03-19T12:47:47.126Z,101646
2019-03-19T12:50:17.984Z,101644
2019-03-19T12:52:46.859Z,101640
2019-03-19T12:55:15.722Z,101648
2019-03-19T12:57:44.579Z,101659
2019-03-19T13:00:14.253Z,101638
2019-03-19T13:02:43.064Z,101644
2019-03-19T13:05:12.647Z,101647
2019-03-19T13:07:41.493Z,101634
2019-03-19T13:10:11.928Z,101630
2019-03-19T13:12:40.773Z,101625
2019-03-19T13:15:10.562Z,101635
2019-03-19T13:17:39.399Z,101636
2019-03-19T13:20:08.231Z,101621
2019-03-19T13:22:37.081Z,101631
2019-03-19T13:25:06.714Z,101640
2019-03-19T13:27:35.600Z,101628
2019-03-19T13:30:04.414Z,101630
2019-03-19T13:32:33.249Z,101634
2019-03-19T13:35:02.111Z,101643
2019-03-19T13:37:31.003Z,101630
2019-03-19T13:39:59.823Z,101629
2019-03-19T13:42:28.678Z,101635
2019-03-19T13:44:57.524Z,101629
2019-03-19T13:47:26.370Z,101628
2019-03-19T13:49:55.960Z,101635
2019-03-19T13:52:25.579Z,101623
2019-03-19T13:54:54.428Z,101625
2019-03-19T13:57:23.272Z,101618
2019-03-19T13:59:52.113Z,101618
2019-03-19T14:02:20.978Z,101623
2019-03-19T14:04:49.826Z,101626
2019-03-19T14:07:18.675Z,101628
2019-03-19T14:09:47.520Z,101631
2019-03-19T14:12:16.367Z,101632
2019-03-19T14:14:45.228Z,101631
2019-03-19T14:17:14.092Z,101631
2019-03-19T14:19:42.923Z,101634
2019-03-19T14:22:11.775Z,101634
2019-03-19T14:24:40.618Z,101640
2019-03-19T14:27:09.472Z,101639
2019-03-19T14:29:38.321Z,101631
2019-03-19T14:32:07.174Z,101639
2019-03-19T14:34:36.040Z,101631
2019-03-19T14:37:04.890Z,101633
2019-03-19T14:39:33.739Z,101636
2019-03-19T14:42:02.591Z,101625
2019-03-19T14:44:31.434Z,101624
2019-03-19T14:47:00.277Z,101629
2019-03-19T14:49:29.113Z,101619
2019-03-19T14:51:57.961Z,101616
2019-03-19T14:54:26.811Z,101616
2019-03-19T14:56:56.461Z,101622
2019-03-19T14:59:26.014Z,101616
2019-03-19T15:01:54.853Z,101618
2019-03-19T15:04:23.695Z,101625
2019-03-19T15:06:52.548Z,101627
2019-03-19T15:09:21.470Z,101622
2019-03-19T15:11:50.333Z,101628
2019-03-19T15:14:19.185Z,101627
2019-03-19T15:16:48.032Z,101626
2019-03-19T15:19:16.888Z,101621
2019-03-19T15:21:45.737Z,101618
2019-03-19T15:24:15.323Z,101622
2019-03-19T15:26:44.189Z,101635
2019-03-19T15:29:13.019Z,101632
2019-03-19T15:31:42.611Z,101633
2019-03-19T15:34:11.459Z,101639
2019-03-19T15:36:40.334Z,101632
2019-03-19T15:39:09.182Z,101635
2019-03-19T15:41:38.787Z,101626
2019-03-19T15:44:07.630Z,101627
2019-03-19T15:46:36.477Z,101642
2019-03-19T15:49:05.319Z,101635
2019-03-19T15:51:34.158Z,101645
2019-03-19T15:54:03.019Z,101636
2019-03-19T15:56:31.854Z,101643
2019-03-19T15:59:00.704Z,101644
2019-03-19T16:01:39.880Z,101641
2019-03-19T16:03:58.399Z,101645
2019-03-19T16:06:27.248Z,101648
2019-03-19T16:08:56.093Z,101661
2019-03-19T16:11:24.928Z,101660
2019-03-19T16:13:53.778Z,101672
2019-03-19T16:16:22.634Z,101669
2019-03-19T16:18:52.227Z,101672
2019-03-19T16:21:21.088Z,101669
2019-03-19T16:23:49.942Z,101678
2019-03-19T16:26:18.803Z,101676
2019-03-19T16:28:47.663Z,101678
2019-03-19T16:31:16.505Z,101676
2019-03-19T16:33:45.353Z,101684
2019-03-19T16:36:14.226Z,101690
2019-03-19T16:38:43.105Z,101693
2019-03-19T16:41:11.949Z,101692
2019-03-19T16:43:41.547Z,101694
2019-03-19T16:46:10.426Z,101694
2019-03-19T16:48:39.249Z,101699
2019-03-19T16:51:08.124Z,101706
2019-03-19T16:53:36.957Z,101700
2019-03-19T16:56:07.580Z,101712
2019-03-19T16:58:34.665Z,101716
2019-03-19T17:01:03.507Z,101719
2019-03-19T17:03:32.348Z,101716
2019-03-19T17:06:01.190Z,101722
2019-03-19T17:08:30.773Z,101722
2019-03-19T17:11:00.357Z,101722
2019-03-19T17:13:29.331Z,101730
2019-03-19T17:15:58.173Z,101723
2019-03-19T17:18:27.018Z,101732
2019-03-19T17:20:55.867Z,101732
2019-03-19T17:23:24.718Z,101742
2019-03-19T17:25:53.567Z,101740
2019-03-19T17:28:22.923Z,101745
2019-03-19T17:30:51.291Z,101752
2019-03-19T17:33:20.165Z,101753
2019-03-19T17:35:49.010Z,101763
2019-03-19T17:38:17.870Z,101760
2019-03-19T17:40:47.313Z,101766
2019-03-19T17:43:16.202Z,101770
2019-03-19T17:45:45.097Z,101769
2019-03-19T17:48:16.332Z,101772
2019-03-19T17:50:42.793Z,101766
2019-03-19T17:53:11.654Z,101766
2019-03-19T17:55:40.508Z,101772
2019-03-19T17:58:10.134Z,101774
2019-03-19T18:00:40.820Z,101783
2019-03-19T18:03:09.708Z,101784
2019-03-19T18:05:38.528Z,101789
2019-03-19T18:08:07.391Z,101789
2019-03-19T18:10:36.259Z,101794
2019-03-19T18:13:06.647Z,101793
2019-03-19T18:15:33.960Z,101798
2019-03-19T18:18:02.805Z,101794
2019-03-19T18:20:31.659Z,101801
2019-03-19T18:23:01.253Z,101797
2019-03-19T18:25:30.121Z,101801
2019-03-19T18:27:58.980Z,101798
2019-03-19T18:30:27.832Z,101804
2019-03-19T18:32:56.805Z,101804
2019-03-19T18:35:25.592Z,101802
2019-03-19T18:37:54.379Z,101797
2019-03-19T18:40:23.240Z,101802
2019-03-19T18:42:52.113Z,101812
2019-03-19T18:45:20.950Z,101808
2019-03-19T18:47:49.819Z,101811
2019-03-19T18:50:18.653Z,101816
2019-03-19T18:52:48.243Z,101815
2019-03-19T18:55:17.119Z,101824
2019-03-19T18:57:45.956Z,101823
2019-03-19T19:00:15.590Z,101823
2019-03-19T19:02:49.840Z,101828
2019-03-19T19:05:14.036Z,101832
2019-03-19T19:07:42.889Z,101831
2019-03-19T19:10:13.700Z,101834
2019-03-19T19:12:42.567Z,101838
2019-03-19T19:15:12.189Z,101839
2019-03-19T19:17:41.065Z,101846
2019-03-19T19:20:09.920Z,101839
2019-03-19T19:22:38.780Z,101851
2019-03-19T19:25:08.528Z,101846
2019-03-19T19:27:37.329Z,101853
2019-03-19T19:30:06.966Z,101861
2019-03-19T19:32:36.540Z,101870
2019-03-19T19:35:06.143Z,101874
2019-03-19T19:37:35.792Z,101870
2019-03-19T19:40:05.394Z,101872
2019-03-19T19:42:34.213Z,101870
2019-03-19T19:45:03.243Z,101865
2019-03-19T19:47:32.842Z,101875
2019-03-19T19:50:01.698Z,101877
2019-03-19T19:52:30.549Z,101881
2019-03-19T19:54:59.397Z,101881
2019-03-19T19:57:28.260Z,101882
2019-03-19T19:59:57.115Z,101880
2019-03-19T20:02:25.964Z,101887
2019-03-19T20:05:02.957Z,101887
2019-03-19T20:07:24.299Z,101897
2019-03-19T20:09:53.129Z,101888
2019-03-19T20:12:21.988Z,101893
2019-03-19T20:14:50.845Z,101897
2019-03-19T20:17:20.475Z,101889
2019-03-19T20:19:49.311Z,101897
2019-03-19T20:22:18.179Z,101895
2019-03-19T20:24:47.039Z,101894
2019-03-19T20:27:15.931Z,101899
2019-03-19T20:29:44.799Z,101904
2019-03-19T20:32:13.659Z,101903
2019-03-19T20:34:42.506Z,101903
2019-03-19T20:37:11.375Z,101900
2019-03-19T20:39:40.983Z,101908
2019-03-19T20:42:09.833Z,101909
2019-03-19T20:44:38.729Z,101917
2019-03-19T20:47:07.623Z,101919
2019-03-19T20:49:46.967Z,101925
2019-03-19T20:52:05.317Z,101934
2019-03-19T20:54:34.183Z,101931
2019-03-19T20:57:03.045Z,101937
2019-03-19T20:59:31.962Z,101935
2019-03-19T21:02:00.768Z,101941
2019-03-19T21:04:31.645Z,101942
2019-03-19T21:06:59.306Z,101947
2019-03-19T21:09:28.159Z,101946
2019-03-19T21:11:57.027Z,101958
2019-03-19T21:14:25.878Z,101954
2019-03-19T21:16:57.277Z,101956
2019-03-19T21:19:24.346Z,101953
2019-03-19T21:21:53.247Z,101959
2019-03-19T21:24:22.136Z,101964
2019-03-19T21:26:51.763Z,101958
2019-03-19T21:29:20.593Z,101968
2019-03-19T21:31:49.479Z,101961
2019-03-19T21:34:18.311Z,101964
2019-03-19T21:36:47.175Z,101966
2019-03-19T21:39:16.065Z,101971
2019-03-19T21:41:44.932Z,101973
2019-03-19T21:44:13.790Z,101982
2019-03-19T21:46:42.659Z,101979
2019-03-19T21:49:11.524Z,101983
2019-03-19T21:51:40.399Z,101984
2019-03-19T21:54:09.255Z,101983
2019-03-19T21:56:38.112Z,101984
2019-03-19T21:59:07.710Z,101993
2019-03-19T22:01:37.311Z,102001
2019-03-19T22:04:06.901Z,101999
2019-03-19T22:06:35.793Z,101995
2019-03-19T22:09:04.607Z,101993
2019-03-19T22:11:34.228Z,101997
2019-03-19T22:14:03.641Z,101996
2019-03-19T22:16:32.496Z,102011
2019-03-19T22:19:01.357Z,102010
2019-03-19T22:21:30.224Z,101997
2019-03-19T22:23:59.082Z,102005
2019-03-19T22:26:27.990Z,102011
2019-03-19T22:28:56.796Z,102007
2019-03-19T22:31:25.641Z,102009
2019-03-19T22:33:55.242Z,102012
2019-03-19T22:36:24.103Z,102007
2019-03-19T22:38:52.937Z,102014
2019-03-19T22:41:21.781Z,102016
2019-03-19T22:43:50.631Z,102013
2019-03-19T22:46:22.081Z,102014
2019-03-19T22:48:48.359Z,102020
2019-03-19T22:51:17.171Z,102024
2019-03-19T22:53:46.785Z,102017
2019-03-19T22:56:15.644Z,102028
2019-03-19T22:58:44.493Z,102021
2019-03-19T23:01:13.382Z,102024
2019-03-19T23:03:42.933Z,102019
2019-03-19T23:06:11.774Z,102018
2019-03-19T23:08:40.622Z,102026
2019-03-19T23:11:09.549Z,102020
2019-03-19T23:13:38.369Z,102030
2019-03-19T23:16:07.217Z,102031
2019-03-19T23:18:36.113Z,102030
2019-03-19T23:21:05.685Z,102026
2019-03-19T23:23:34.525Z,102033
2019-03-19T23:26:03.388Z,102032
2019-03-19T23:28:32.244Z,102037
2019-03-19T23:31:01.092Z,102038
2019-03-19T23:33:30.675Z,102044
2019-03-19T23:35:59.505Z,102055
2019-03-19T23:38:28.351Z,102049
2019-03-19T23:40:57.228Z,102051
2019-03-19T23:43:26.022Z,102066
2019-03-19T23:45:54.862Z,102061
2019-03-19T23:48:24.442Z,102062
2019-03-19T23:50:53.270Z,102057
2019-03-19T23:53:22.118Z,102053
2019-03-19T23:55:50.978Z,102058
2019-03-19T23:58:19.821Z,102062
